sensor_id;sensor_type;location;lat;lon;timestamp;P1;durP1;ratioP1;P2;durP2;ratioP2
828;SDS011;396;52.558;13.188;2023-07-16T00:02:06;4.97;;;1.37;;
828;SDS011;396;52.558;13.188;2023-07-16T00:04:32;5.23;;;1.37;;
828;SDS011;396;52.558;13.188;2023-07-16T00:06:59;6.27;;;1.43;;
828;SDS011;396;52.558;13.188;2023-07-16T00:09:28;4.60;;;1.10;;
828;SDS011;396;52.558;13.188;2023-07-16T00:11:54;4.90;;;1.40;;
828;SDS011;396;52.558;13.188;2023-07-16T00:14:22;4.97;;;1.33;;
828;SDS011;396;52.558;13.188;2023-07-16T00:16:49;4.50;;;1.10;;
828;SDS011;396;52.558;13.188;2023-07-16T00:19:16;5.10;;;1.40;;
828;SDS011;396;52.558;13.188;2023-07-16T00:21:42;4.80;;;1.10;;
828;SDS011;396;52.558;13.188;2023-07-16T00:24:09;4.90;;;1.30;;
828;SDS011;396;52.558;13.188;2023-07-16T00:26:37;4.80;;;1.30;;
828;SDS011;396;52.558;13.188;2023-07-16T00:29:04;4.80;;;1.17;;
828;SDS011;396;52.558;13.188;2023-07-16T00:31:30;5.37;;;1.30;;
828;SDS011;396;52.558;13.188;2023-07-16T00:33:57;4.93;;;1.17;;
828;SDS011;396;52.558;13.188;2023-07-16T00:36:24;5.77;;;1.57;;
828;SDS011;396;52.558;13.188;2023-07-16T00:38:50;5.53;;;1.60;;
828;SDS011;396;52.558;13.188;2023-07-16T00:41:17;5.37;;;1.70;;
828;SDS011;396;52.558;13.188;2023-07-16T00:43:45;5.50;;;1.77;;
828;SDS011;396;52.558;13.188;2023-07-16T00:46:12;5.03;;;1.13;;
828;SDS011;396;52.558;13.188;2023-07-16T00:48:39;5.47;;;1.80;;
828;SDS011;396;52.558;13.188;2023-07-16T00:51:06;5.27;;;1.63;;
828;SDS011;396;52.558;13.188;2023-07-16T00:53:33;5.30;;;1.80;;
828;SDS011;396;52.558;13.188;2023-07-16T00:56:00;5.40;;;1.70;;
828;SDS011;396;52.558;13.188;2023-07-16T00:58:26;5.37;;;1.73;;
828;SDS011;396;52.558;13.188;2023-07-16T01:00:54;5.57;;;1.40;;
828;SDS011;396;52.558;13.188;2023-07-16T01:03:21;6.07;;;2.30;;
828;SDS011;396;52.558;13.188;2023-07-16T01:05:49;5.00;;;1.63;;
828;SDS011;396;52.558;13.188;2023-07-16T01:08:31;5.20;;;1.70;;
828;SDS011;396;52.558;13.188;2023-07-16T01:11:02;5.60;;;1.83;;
828;SDS011;396;52.558;13.188;2023-07-16T01:13:30;5.40;;;1.50;;
828;SDS011;396;52.558;13.188;2023-07-16T01:15:59;5.40;;;1.70;;
828;SDS011;396;52.558;13.188;2023-07-16T01:18:26;6.37;;;1.90;;
828;SDS011;396;52.558;13.188;2023-07-16T01:20:52;7.40;;;2.33;;
828;SDS011;396;52.558;13.188;2023-07-16T01:26:39;6.83;;;1.97;;
828;SDS011;396;52.558;13.188;2023-07-16T01:29:31;7.80;;;2.20;;
828;SDS011;396;52.558;13.188;2023-07-16T01:31:59;6.23;;;2.10;;
828;SDS011;396;52.558;13.188;2023-07-16T01:34:29;5.53;;;1.83;;
828;SDS011;396;52.558;13.188;2023-07-16T01:36:59;5.77;;;2.00;;
828;SDS011;396;52.558;13.188;2023-07-16T01:39:26;6.30;;;2.00;;
828;SDS011;396;52.558;13.188;2023-07-16T01:41:53;8.13;;;2.60;;
828;SDS011;396;52.558;13.188;2023-07-16T01:44:20;7.37;;;2.07;;
828;SDS011;396;52.558;13.188;2023-07-16T01:46:49;7.00;;;2.10;;
828;SDS011;396;52.558;13.188;2023-07-16T01:49:30;6.10;;;2.10;;
828;SDS011;396;52.558;13.188;2023-07-16T01:51:56;6.60;;;2.60;;
828;SDS011;396;52.558;13.188;2023-07-16T01:54:23;6.03;;;2.00;;
828;SDS011;396;52.558;13.188;2023-07-16T01:56:49;5.90;;;2.20;;
828;SDS011;396;52.558;13.188;2023-07-16T01:59:16;6.33;;;2.23;;
828;SDS011;396;52.558;13.188;2023-07-16T02:01:43;5.80;;;2.00;;
828;SDS011;396;52.558;13.188;2023-07-16T02:04:11;6.93;;;2.37;;
828;SDS011;396;52.558;13.188;2023-07-16T02:06:37;6.40;;;2.53;;
828;SDS011;396;52.558;13.188;2023-07-16T02:09:04;6.00;;;2.53;;
828;SDS011;396;52.558;13.188;2023-07-16T02:11:30;6.60;;;2.10;;
828;SDS011;396;52.558;13.188;2023-07-16T02:13:57;13.40;;;2.20;;
828;SDS011;396;52.558;13.188;2023-07-16T02:16:24;6.33;;;2.20;;
828;SDS011;396;52.558;13.188;2023-07-16T02:18:50;5.87;;;1.67;;
828;SDS011;396;52.558;13.188;2023-07-16T02:21:18;7.03;;;1.80;;
828;SDS011;396;52.558;13.188;2023-07-16T02:23:45;8.10;;;2.20;;
828;SDS011;396;52.558;13.188;2023-07-16T02:26:12;6.40;;;2.03;;
828;SDS011;396;52.558;13.188;2023-07-16T02:28:38;6.30;;;1.70;;
828;SDS011;396;52.558;13.188;2023-07-16T02:31:05;6.00;;;1.83;;
828;SDS011;396;52.558;13.188;2023-07-16T02:33:32;6.07;;;1.87;;
828;SDS011;396;52.558;13.188;2023-07-16T02:35:58;6.80;;;1.43;;
828;SDS011;396;52.558;13.188;2023-07-16T02:38:27;5.87;;;1.47;;
828;SDS011;396;52.558;13.188;2023-07-16T02:40:54;6.03;;;1.63;;
828;SDS011;396;52.558;13.188;2023-07-16T02:43:20;6.43;;;2.17;;
828;SDS011;396;52.558;13.188;2023-07-16T02:45:47;5.40;;;1.30;;
828;SDS011;396;52.558;13.188;2023-07-16T02:48:14;7.13;;;1.30;;
828;SDS011;396;52.558;13.188;2023-07-16T02:50:40;12.60;;;2.17;;
828;SDS011;396;52.558;13.188;2023-07-16T02:53:07;5.30;;;1.43;;
828;SDS011;396;52.558;13.188;2023-07-16T02:55:35;6.93;;;1.83;;
828;SDS011;396;52.558;13.188;2023-07-16T02:58:02;6.63;;;2.13;;
828;SDS011;396;52.558;13.188;2023-07-16T03:00:29;5.40;;;1.70;;
828;SDS011;396;52.558;13.188;2023-07-16T03:02:56;5.20;;;1.40;;
828;SDS011;396;52.558;13.188;2023-07-16T03:05:23;7.93;;;1.80;;
828;SDS011;396;52.558;13.188;2023-07-16T03:07:50;7.17;;;2.20;;
828;SDS011;396;52.558;13.188;2023-07-16T03:10:17;6.90;;;2.10;;
828;SDS011;396;52.558;13.188;2023-07-16T03:12:45;6.10;;;2.00;;
828;SDS011;396;52.558;13.188;2023-07-16T03:15:11;6.50;;;2.30;;
828;SDS011;396;52.558;13.188;2023-07-16T03:17:38;5.80;;;1.77;;
828;SDS011;396;52.558;13.188;2023-07-16T03:20:05;5.40;;;1.77;;
828;SDS011;396;52.558;13.188;2023-07-16T03:22:33;6.03;;;1.73;;
828;SDS011;396;52.558;13.188;2023-07-16T03:24:59;11.97;;;2.10;;
828;SDS011;396;52.558;13.188;2023-07-16T03:27:27;7.67;;;2.00;;
828;SDS011;396;52.558;13.188;2023-07-16T03:29:55;5.90;;;1.80;;
828;SDS011;396;52.558;13.188;2023-07-16T03:32:22;6.40;;;1.83;;
828;SDS011;396;52.558;13.188;2023-07-16T03:34:48;7.93;;;2.20;;
828;SDS011;396;52.558;13.188;2023-07-16T03:37:15;6.17;;;1.70;;
828;SDS011;396;52.558;13.188;2023-07-16T03:39:42;5.80;;;2.00;;
828;SDS011;396;52.558;13.188;2023-07-16T03:42:08;6.30;;;1.73;;
828;SDS011;396;52.558;13.188;2023-07-16T03:44:35;6.83;;;2.30;;
828;SDS011;396;52.558;13.188;2023-07-16T03:47:03;8.00;;;2.53;;
828;SDS011;396;52.558;13.188;2023-07-16T03:49:30;8.00;;;2.23;;
828;SDS011;396;52.558;13.188;2023-07-16T03:51:56;6.87;;;2.60;;
828;SDS011;396;52.558;13.188;2023-07-16T03:54:23;6.00;;;1.80;;
828;SDS011;396;52.558;13.188;2023-07-16T03:56:50;6.67;;;2.07;;
828;SDS011;396;52.558;13.188;2023-07-16T03:59:16;6.03;;;1.73;;
828;SDS011;396;52.558;13.188;2023-07-16T04:01:43;6.00;;;1.90;;
828;SDS011;396;52.558;13.188;2023-07-16T04:04:11;12.47;;;2.03;;
828;SDS011;396;52.558;13.188;2023-07-16T04:06:37;4.83;;;1.03;;
828;SDS011;396;52.558;13.188;2023-07-16T04:09:04;8.97;;;2.20;;
828;SDS011;396;52.558;13.188;2023-07-16T04:11:30;5.93;;;1.53;;
828;SDS011;396;52.558;13.188;2023-07-16T04:13:57;8.30;;;2.30;;
828;SDS011;396;52.558;13.188;2023-07-16T04:16:24;6.00;;;2.20;;
828;SDS011;396;52.558;13.188;2023-07-16T04:18:50;8.23;;;2.07;;
828;SDS011;396;52.558;13.188;2023-07-16T04:21:18;6.73;;;2.47;;
828;SDS011;396;52.558;13.188;2023-07-16T04:23:45;6.13;;;2.20;;
828;SDS011;396;52.558;13.188;2023-07-16T04:26:11;6.87;;;2.30;;
828;SDS011;396;52.558;13.188;2023-07-16T04:28:38;6.30;;;1.77;;
828;SDS011;396;52.558;13.188;2023-07-16T04:31:05;7.47;;;1.93;;
828;SDS011;396;52.558;13.188;2023-07-16T04:33:32;5.80;;;1.80;;
828;SDS011;396;52.558;13.188;2023-07-16T04:35:58;6.43;;;1.97;;
828;SDS011;396;52.558;13.188;2023-07-16T04:38:26;6.70;;;2.00;;
828;SDS011;396;52.558;13.188;2023-07-16T04:40:53;5.57;;;1.50;;
828;SDS011;396;52.558;13.188;2023-07-16T04:43:19;5.83;;;1.67;;
828;SDS011;396;52.558;13.188;2023-07-16T04:45:46;6.80;;;1.90;;
828;SDS011;396;52.558;13.188;2023-07-16T04:48:12;6.20;;;1.83;;
828;SDS011;396;52.558;13.188;2023-07-16T04:50:39;7.20;;;1.87;;
828;SDS011;396;52.558;13.188;2023-07-16T04:53:06;7.00;;;2.03;;
828;SDS011;396;52.558;13.188;2023-07-16T04:55:36;6.07;;;1.60;;
828;SDS011;396;52.558;13.188;2023-07-16T04:58:03;7.50;;;2.40;;
828;SDS011;396;52.558;13.188;2023-07-16T05:00:30;6.47;;;1.80;;
828;SDS011;396;52.558;13.188;2023-07-16T05:02:57;6.87;;;1.77;;
828;SDS011;396;52.558;13.188;2023-07-16T05:05:24;5.80;;;1.60;;
828;SDS011;396;52.558;13.188;2023-07-16T05:07:51;6.03;;;1.60;;
828;SDS011;396;52.558;13.188;2023-07-16T05:10:17;6.80;;;2.17;;
828;SDS011;396;52.558;13.188;2023-07-16T05:12:45;5.97;;;1.50;;
828;SDS011;396;52.558;13.188;2023-07-16T05:15:12;7.60;;;2.30;;
828;SDS011;396;52.558;13.188;2023-07-16T05:17:39;7.60;;;2.30;;
828;SDS011;396;52.558;13.188;2023-07-16T05:20:06;7.30;;;1.90;;
828;SDS011;396;52.558;13.188;2023-07-16T05:22:34;6.50;;;1.93;;
828;SDS011;396;52.558;13.188;2023-07-16T05:25:00;5.93;;;1.87;;
828;SDS011;396;52.558;13.188;2023-07-16T05:27:27;6.43;;;1.93;;
828;SDS011;396;52.558;13.188;2023-07-16T05:29:55;7.13;;;2.10;;
828;SDS011;396;52.558;13.188;2023-07-16T05:32:22;7.70;;;2.00;;
828;SDS011;396;52.558;13.188;2023-07-16T05:34:49;6.30;;;2.10;;
828;SDS011;396;52.558;13.188;2023-07-16T05:37:15;6.30;;;2.40;;
828;SDS011;396;52.558;13.188;2023-07-16T05:39:42;6.03;;;1.97;;
828;SDS011;396;52.558;13.188;2023-07-16T05:42:09;6.60;;;1.73;;
828;SDS011;396;52.558;13.188;2023-07-16T05:44:36;9.70;;;2.43;;
828;SDS011;396;52.558;13.188;2023-07-16T05:47:04;8.67;;;2.07;;
828;SDS011;396;52.558;13.188;2023-07-16T05:49:31;6.77;;;2.20;;
828;SDS011;396;52.558;13.188;2023-07-16T05:51:58;5.60;;;1.70;;
828;SDS011;396;52.558;13.188;2023-07-16T05:54:24;6.50;;;1.80;;
828;SDS011;396;52.558;13.188;2023-07-16T05:56:51;5.90;;;2.13;;
828;SDS011;396;52.558;13.188;2023-07-16T05:59:18;5.93;;;1.70;;
828;SDS011;396;52.558;13.188;2023-07-16T06:01:45;7.30;;;2.37;;
828;SDS011;396;52.558;13.188;2023-07-16T06:04:12;5.87;;;1.63;;
828;SDS011;396;52.558;13.188;2023-07-16T06:06:39;5.60;;;1.70;;
828;SDS011;396;52.558;13.188;2023-07-16T06:09:06;6.17;;;2.17;;
828;SDS011;396;52.558;13.188;2023-07-16T06:11:32;11.80;;;2.10;;
828;SDS011;396;52.558;13.188;2023-07-16T06:13:59;5.77;;;1.97;;
828;SDS011;396;52.558;13.188;2023-07-16T06:16:26;6.90;;;2.70;;
828;SDS011;396;52.558;13.188;2023-07-16T06:18:52;8.30;;;2.17;;
828;SDS011;396;52.558;13.188;2023-07-16T06:21:20;6.20;;;2.00;;
828;SDS011;396;52.558;13.188;2023-07-16T06:23:47;6.70;;;1.77;;
828;SDS011;396;52.558;13.188;2023-07-16T06:26:13;9.73;;;2.07;;
828;SDS011;396;52.558;13.188;2023-07-16T06:28:40;5.70;;;1.80;;
828;SDS011;396;52.558;13.188;2023-07-16T06:31:07;7.40;;;1.97;;
828;SDS011;396;52.558;13.188;2023-07-16T06:33:33;6.37;;;1.83;;
828;SDS011;396;52.558;13.188;2023-07-16T06:36:00;6.60;;;1.90;;
828;SDS011;396;52.558;13.188;2023-07-16T06:38:28;6.03;;;2.13;;
828;SDS011;396;52.558;13.188;2023-07-16T06:40:55;5.70;;;1.70;;
828;SDS011;396;52.558;13.188;2023-07-16T06:43:21;6.47;;;1.90;;
828;SDS011;396;52.558;13.188;2023-07-16T06:45:48;5.57;;;1.33;;
828;SDS011;396;52.558;13.188;2023-07-16T06:48:16;5.97;;;1.83;;
828;SDS011;396;52.558;13.188;2023-07-16T06:50:43;6.37;;;2.00;;
828;SDS011;396;52.558;13.188;2023-07-16T06:53:09;5.73;;;2.00;;
828;SDS011;396;52.558;13.188;2023-07-16T06:55:37;5.83;;;1.70;;
828;SDS011;396;52.558;13.188;2023-07-16T06:58:04;5.10;;;1.50;;
828;SDS011;396;52.558;13.188;2023-07-16T07:00:30;5.90;;;1.83;;
828;SDS011;396;52.558;13.188;2023-07-16T07:02:58;6.00;;;1.80;;
828;SDS011;396;52.558;13.188;2023-07-16T07:05:24;8.20;;;1.93;;
828;SDS011;396;52.558;13.188;2023-07-16T07:07:51;5.73;;;1.83;;
828;SDS011;396;52.558;13.188;2023-07-16T07:10:18;5.10;;;1.30;;
828;SDS011;396;52.558;13.188;2023-07-16T07:12:45;5.97;;;1.63;;
828;SDS011;396;52.558;13.188;2023-07-16T07:15:13;5.47;;;1.53;;
828;SDS011;396;52.558;13.188;2023-07-16T07:17:40;5.53;;;1.63;;
828;SDS011;396;52.558;13.188;2023-07-16T07:20:08;5.77;;;1.53;;
828;SDS011;396;52.558;13.188;2023-07-16T07:22:35;6.73;;;1.80;;
828;SDS011;396;52.558;13.188;2023-07-16T07:25:02;6.17;;;1.97;;
828;SDS011;396;52.558;13.188;2023-07-16T07:27:29;7.27;;;1.70;;
828;SDS011;396;52.558;13.188;2023-07-16T07:29:57;6.23;;;1.50;;
828;SDS011;396;52.558;13.188;2023-07-16T07:32:24;5.40;;;1.53;;
828;SDS011;396;52.558;13.188;2023-07-16T07:34:51;5.53;;;1.43;;
828;SDS011;396;52.558;13.188;2023-07-16T07:37:17;5.97;;;1.87;;
828;SDS011;396;52.558;13.188;2023-07-16T07:39:44;6.10;;;1.50;;
828;SDS011;396;52.558;13.188;2023-07-16T07:42:12;5.03;;;1.40;;
828;SDS011;396;52.558;13.188;2023-07-16T07:44:39;5.60;;;1.43;;
828;SDS011;396;52.558;13.188;2023-07-16T07:47:07;5.27;;;1.60;;
828;SDS011;396;52.558;13.188;2023-07-16T07:49:34;5.27;;;1.10;;
828;SDS011;396;52.558;13.188;2023-07-16T07:52:01;5.10;;;1.50;;
828;SDS011;396;52.558;13.188;2023-07-16T07:54:27;5.50;;;1.40;;
828;SDS011;396;52.558;13.188;2023-07-16T07:56:54;5.90;;;1.40;;
828;SDS011;396;52.558;13.188;2023-07-16T07:59:21;5.53;;;1.40;;
828;SDS011;396;52.558;13.188;2023-07-16T08:01:47;6.23;;;1.53;;
828;SDS011;396;52.558;13.188;2023-07-16T08:04:15;5.50;;;1.87;;
828;SDS011;396;52.558;13.188;2023-07-16T08:06:42;5.60;;;1.33;;
828;SDS011;396;52.558;13.188;2023-07-16T08:09:08;5.17;;;1.57;;
828;SDS011;396;52.558;13.188;2023-07-16T08:11:35;5.77;;;1.40;;
828;SDS011;396;52.558;13.188;2023-07-16T08:14:02;5.53;;;1.63;;
828;SDS011;396;52.558;13.188;2023-07-16T08:16:28;5.97;;;1.27;;
828;SDS011;396;52.558;13.188;2023-07-16T08:18:55;9.70;;;1.83;;
828;SDS011;396;52.558;13.188;2023-07-16T08:21:23;5.23;;;1.40;;
828;SDS011;396;52.558;13.188;2023-07-16T08:23:50;5.23;;;1.30;;
828;SDS011;396;52.558;13.188;2023-07-16T08:26:16;6.70;;;1.03;;
828;SDS011;396;52.558;13.188;2023-07-16T08:28:43;4.93;;;1.13;;
828;SDS011;396;52.558;13.188;2023-07-16T08:31:10;4.80;;;1.20;;
828;SDS011;396;52.558;13.188;2023-07-16T08:33:37;4.87;;;1.30;;
828;SDS011;396;52.558;13.188;2023-07-16T08:36:04;5.53;;;1.73;;
828;SDS011;396;52.558;13.188;2023-07-16T08:38:32;5.77;;;1.60;;
828;SDS011;396;52.558;13.188;2023-07-16T08:40:59;5.13;;;1.33;;
828;SDS011;396;52.558;13.188;2023-07-16T08:43:26;5.10;;;1.40;;
828;SDS011;396;52.558;13.188;2023-07-16T08:45:54;5.87;;;1.37;;
828;SDS011;396;52.558;13.188;2023-07-16T08:48:22;5.10;;;1.50;;
828;SDS011;396;52.558;13.188;2023-07-16T08:50:49;4.70;;;1.33;;
828;SDS011;396;52.558;13.188;2023-07-16T08:53:16;5.40;;;1.33;;
828;SDS011;396;52.558;13.188;2023-07-16T08:55:45;4.60;;;1.07;;
828;SDS011;396;52.558;13.188;2023-07-16T08:58:12;5.10;;;1.40;;
828;SDS011;396;52.558;13.188;2023-07-16T09:00:40;4.83;;;0.90;;
828;SDS011;396;52.558;13.188;2023-07-16T09:03:07;5.57;;;1.40;;
828;SDS011;396;52.558;13.188;2023-07-16T09:05:34;4.80;;;1.30;;
828;SDS011;396;52.558;13.188;2023-07-16T09:08:01;4.70;;;1.10;;
828;SDS011;396;52.558;13.188;2023-07-16T09:10:28;4.17;;;0.80;;
828;SDS011;396;52.558;13.188;2023-07-16T09:12:57;4.80;;;0.90;;
828;SDS011;396;52.558;13.188;2023-07-16T09:15:25;4.53;;;1.07;;
828;SDS011;396;52.558;13.188;2023-07-16T09:17:54;7.03;;;1.47;;
828;SDS011;396;52.558;13.188;2023-07-16T09:20:22;11.03;;;1.33;;
828;SDS011;396;52.558;13.188;2023-07-16T09:22:49;4.30;;;0.80;;
828;SDS011;396;52.558;13.188;2023-07-16T09:25:16;5.47;;;1.50;;
828;SDS011;396;52.558;13.188;2023-07-16T09:27:43;5.57;;;1.23;;
828;SDS011;396;52.558;13.188;2023-07-16T09:30:15;8.50;;;1.30;;
828;SDS011;396;52.558;13.188;2023-07-16T09:32:42;5.07;;;1.20;;
828;SDS011;396;52.558;13.188;2023-07-16T09:35:09;5.27;;;1.20;;
828;SDS011;396;52.558;13.188;2023-07-16T09:37:36;6.93;;;1.10;;
828;SDS011;396;52.558;13.188;2023-07-16T09:40:04;5.00;;;1.03;;
828;SDS011;396;52.558;13.188;2023-07-16T09:42:34;5.50;;;1.30;;
828;SDS011;396;52.558;13.188;2023-07-16T09:45:03;4.90;;;1.00;;
828;SDS011;396;52.558;13.188;2023-07-16T09:47:34;6.17;;;1.07;;
828;SDS011;396;52.558;13.188;2023-07-16T09:50:01;4.80;;;1.03;;
828;SDS011;396;52.558;13.188;2023-07-16T09:52:29;4.67;;;0.83;;
828;SDS011;396;52.558;13.188;2023-07-16T09:54:57;4.80;;;1.47;;
828;SDS011;396;52.558;13.188;2023-07-16T09:57:28;5.40;;;1.47;;
828;SDS011;396;52.558;13.188;2023-07-16T09:59:58;5.60;;;1.47;;
828;SDS011;396;52.558;13.188;2023-07-16T10:02:30;4.40;;;1.00;;
828;SDS011;396;52.558;13.188;2023-07-16T10:05:02;4.60;;;1.10;;
828;SDS011;396;52.558;13.188;2023-07-16T10:07:37;4.57;;;1.10;;
828;SDS011;396;52.558;13.188;2023-07-16T10:10:07;4.70;;;1.10;;
828;SDS011;396;52.558;13.188;2023-07-16T10:12:34;5.33;;;1.40;;
828;SDS011;396;52.558;13.188;2023-07-16T10:15:02;4.60;;;1.00;;
828;SDS011;396;52.558;13.188;2023-07-16T10:17:29;5.23;;;1.30;;
828;SDS011;396;52.558;13.188;2023-07-16T10:19:59;4.53;;;1.10;;
828;SDS011;396;52.558;13.188;2023-07-16T10:22:33;5.20;;;1.33;;
828;SDS011;396;52.558;13.188;2023-07-16T10:25:02;5.60;;;1.70;;
828;SDS011;396;52.558;13.188;2023-07-16T10:27:29;4.20;;;0.73;;
828;SDS011;396;52.558;13.188;2023-07-16T10:29:57;5.73;;;1.27;;
828;SDS011;396;52.558;13.188;2023-07-16T10:32:26;5.90;;;1.47;;
828;SDS011;396;52.558;13.188;2023-07-16T10:34:54;4.63;;;1.13;;
828;SDS011;396;52.558;13.188;2023-07-16T10:37:22;5.20;;;1.53;;
828;SDS011;396;52.558;13.188;2023-07-16T10:39:50;4.73;;;1.10;;
828;SDS011;396;52.558;13.188;2023-07-16T10:42:18;4.50;;;0.93;;
828;SDS011;396;52.558;13.188;2023-07-16T10:44:48;4.40;;;1.00;;
828;SDS011;396;52.558;13.188;2023-07-16T10:47:19;5.70;;;1.20;;
828;SDS011;396;52.558;13.188;2023-07-16T10:49:47;5.30;;;1.23;;
828;SDS011;396;52.558;13.188;2023-07-16T10:52:14;4.90;;;1.40;;
828;SDS011;396;52.558;13.188;2023-07-16T10:54:42;5.90;;;1.50;;
828;SDS011;396;52.558;13.188;2023-07-16T10:57:09;4.90;;;1.37;;
828;SDS011;396;52.558;13.188;2023-07-16T10:59:37;4.90;;;1.27;;
828;SDS011;396;52.558;13.188;2023-07-16T11:02:05;4.50;;;1.00;;
828;SDS011;396;52.558;13.188;2023-07-16T11:04:34;5.97;;;1.40;;
828;SDS011;396;52.558;13.188;2023-07-16T11:07:03;5.33;;;1.40;;
828;SDS011;396;52.558;13.188;2023-07-16T11:09:31;5.60;;;1.00;;
828;SDS011;396;52.558;13.188;2023-07-16T11:12:06;4.70;;;1.17;;
828;SDS011;396;52.558;13.188;2023-07-16T11:14:33;5.97;;;1.57;;
828;SDS011;396;52.558;13.188;2023-07-16T11:17:03;4.90;;;1.40;;
828;SDS011;396;52.558;13.188;2023-07-16T11:19:31;4.30;;;0.93;;
828;SDS011;396;52.558;13.188;2023-07-16T11:21:57;5.57;;;1.60;;
828;SDS011;396;52.558;13.188;2023-07-16T11:24:24;4.90;;;1.33;;
828;SDS011;396;52.558;13.188;2023-07-16T11:26:52;4.50;;;1.00;;
828;SDS011;396;52.558;13.188;2023-07-16T11:29:23;4.50;;;1.00;;
828;SDS011;396;52.558;13.188;2023-07-16T11:31:50;6.17;;;1.30;;
828;SDS011;396;52.558;13.188;2023-07-16T11:34:19;5.27;;;1.27;;
828;SDS011;396;52.558;13.188;2023-07-16T11:36:46;4.87;;;1.30;;
828;SDS011;396;52.558;13.188;2023-07-16T11:39:12;5.57;;;1.40;;
828;SDS011;396;52.558;13.188;2023-07-16T11:41:39;4.83;;;1.20;;
828;SDS011;396;52.558;13.188;2023-07-16T11:44:07;5.00;;;0.93;;
828;SDS011;396;52.558;13.188;2023-07-16T11:46:36;7.63;;;1.17;;
828;SDS011;396;52.558;13.188;2023-07-16T11:49:02;4.50;;;1.00;;
828;SDS011;396;52.558;13.188;2023-07-16T11:51:29;4.40;;;0.97;;
828;SDS011;396;52.558;13.188;2023-07-16T11:53:56;4.93;;;1.23;;
828;SDS011;396;52.558;13.188;2023-07-16T11:56:23;5.33;;;1.20;;
828;SDS011;396;52.558;13.188;2023-07-16T11:58:50;4.70;;;1.00;;
828;SDS011;396;52.558;13.188;2023-07-16T12:01:16;5.20;;;1.30;;
828;SDS011;396;52.558;13.188;2023-07-16T12:03:44;5.17;;;1.00;;
828;SDS011;396;52.558;13.188;2023-07-16T12:06:11;5.37;;;0.97;;
828;SDS011;396;52.558;13.188;2023-07-16T12:08:38;4.30;;;1.00;;
828;SDS011;396;52.558;13.188;2023-07-16T12:11:04;4.27;;;0.73;;
828;SDS011;396;52.558;13.188;2023-07-16T12:13:31;6.63;;;1.00;;
828;SDS011;396;52.558;13.188;2023-07-16T12:15:57;4.83;;;0.90;;
828;SDS011;396;52.558;13.188;2023-07-16T12:18:24;6.33;;;0.97;;
828;SDS011;396;52.558;13.188;2023-07-16T12:20:53;3.97;;;0.53;;
828;SDS011;396;52.558;13.188;2023-07-16T12:23:19;4.70;;;1.10;;
828;SDS011;396;52.558;13.188;2023-07-16T12:25:46;3.93;;;0.73;;
828;SDS011;396;52.558;13.188;2023-07-16T12:28:14;3.83;;;0.67;;
828;SDS011;396;52.558;13.188;2023-07-16T12:30:40;4.20;;;0.90;;
828;SDS011;396;52.558;13.188;2023-07-16T12:33:07;4.50;;;0.83;;
828;SDS011;396;52.558;13.188;2023-07-16T12:35:34;4.20;;;0.93;;
828;SDS011;396;52.558;13.188;2023-07-16T12:38:02;5.13;;;1.10;;
828;SDS011;396;52.558;13.188;2023-07-16T12:40:28;4.30;;;0.97;;
828;SDS011;396;52.558;13.188;2023-07-16T12:42:55;6.47;;;0.90;;
828;SDS011;396;52.558;13.188;2023-07-16T12:45:22;4.40;;;0.77;;
828;SDS011;396;52.558;13.188;2023-07-16T12:47:49;6.60;;;0.80;;
828;SDS011;396;52.558;13.188;2023-07-16T12:50:16;4.40;;;0.83;;
828;SDS011;396;52.558;13.188;2023-07-16T12:52:43;5.13;;;1.13;;
828;SDS011;396;52.558;13.188;2023-07-16T12:55:11;4.40;;;0.70;;
828;SDS011;396;52.558;13.188;2023-07-16T12:57:38;4.30;;;0.67;;
828;SDS011;396;52.558;13.188;2023-07-16T13:00:05;4.10;;;0.60;;
828;SDS011;396;52.558;13.188;2023-07-16T13:02:34;4.60;;;1.00;;
828;SDS011;396;52.558;13.188;2023-07-16T13:05:01;4.77;;;0.80;;
828;SDS011;396;52.558;13.188;2023-07-16T13:07:28;4.47;;;0.73;;
828;SDS011;396;52.558;13.188;2023-07-16T13:09:56;4.53;;;0.90;;
828;SDS011;396;52.558;13.188;2023-07-16T13:12:24;4.43;;;0.90;;
828;SDS011;396;52.558;13.188;2023-07-16T13:14:51;4.43;;;0.80;;
828;SDS011;396;52.558;13.188;2023-07-16T13:17:17;4.10;;;0.77;;
828;SDS011;396;52.558;13.188;2023-07-16T13:19:44;4.83;;;0.70;;
828;SDS011;396;52.558;13.188;2023-07-16T13:22:12;4.17;;;0.70;;
828;SDS011;396;52.558;13.188;2023-07-16T13:24:39;4.40;;;1.17;;
828;SDS011;396;52.558;13.188;2023-07-16T13:27:06;6.47;;;1.03;;
828;SDS011;396;52.558;13.188;2023-07-16T13:29:36;4.03;;;0.70;;
828;SDS011;396;52.558;13.188;2023-07-16T13:32:03;5.50;;;1.03;;
828;SDS011;396;52.558;13.188;2023-07-16T13:34:30;5.20;;;1.10;;
828;SDS011;396;52.558;13.188;2023-07-16T13:36:57;4.67;;;0.80;;
828;SDS011;396;52.558;13.188;2023-07-16T13:39:23;4.93;;;0.87;;
828;SDS011;396;52.558;13.188;2023-07-16T13:41:50;4.40;;;0.80;;
828;SDS011;396;52.558;13.188;2023-07-16T13:44:16;4.70;;;1.00;;
828;SDS011;396;52.558;13.188;2023-07-16T13:46:44;4.53;;;0.93;;
828;SDS011;396;52.558;13.188;2023-07-16T13:49:11;4.13;;;0.67;;
828;SDS011;396;52.558;13.188;2023-07-16T13:51:38;7.47;;;1.13;;
828;SDS011;396;52.558;13.188;2023-07-16T13:54:05;4.10;;;0.80;;
828;SDS011;396;52.558;13.188;2023-07-16T13:56:32;4.10;;;0.70;;
828;SDS011;396;52.558;13.188;2023-07-16T13:58:58;4.40;;;0.90;;
828;SDS011;396;52.558;13.188;2023-07-16T14:01:25;4.17;;;0.73;;
828;SDS011;396;52.558;13.188;2023-07-16T14:03:53;4.20;;;0.83;;
828;SDS011;396;52.558;13.188;2023-07-16T14:06:20;4.30;;;0.73;;
828;SDS011;396;52.558;13.188;2023-07-16T14:08:46;4.50;;;0.90;;
828;SDS011;396;52.558;13.188;2023-07-16T14:11:13;4.77;;;0.90;;
828;SDS011;396;52.558;13.188;2023-07-16T14:13:41;4.60;;;0.90;;
828;SDS011;396;52.558;13.188;2023-07-16T14:16:07;4.37;;;0.80;;
828;SDS011;396;52.558;13.188;2023-07-16T14:18:34;5.13;;;1.10;;
828;SDS011;396;52.558;13.188;2023-07-16T14:21:02;4.37;;;0.90;;
828;SDS011;396;52.558;13.188;2023-07-16T14:23:29;4.50;;;0.90;;
828;SDS011;396;52.558;13.188;2023-07-16T14:25:56;10.60;;;0.93;;
828;SDS011;396;52.558;13.188;2023-07-16T14:28:22;5.00;;;0.87;;
828;SDS011;396;52.558;13.188;2023-07-16T14:30:49;4.17;;;0.60;;
828;SDS011;396;52.558;13.188;2023-07-16T14:33:15;4.30;;;0.90;;
828;SDS011;396;52.558;13.188;2023-07-16T14:35:42;5.17;;;0.90;;
828;SDS011;396;52.558;13.188;2023-07-16T14:38:10;4.93;;;1.07;;
828;SDS011;396;52.558;13.188;2023-07-16T14:40:37;5.70;;;0.80;;
828;SDS011;396;52.558;13.188;2023-07-16T14:43:03;5.00;;;1.40;;
828;SDS011;396;52.558;13.188;2023-07-16T14:45:30;5.43;;;1.20;;
828;SDS011;396;52.558;13.188;2023-07-16T14:47:57;4.17;;;0.80;;
828;SDS011;396;52.558;13.188;2023-07-16T14:50:24;4.93;;;1.00;;
828;SDS011;396;52.558;13.188;2023-07-16T14:52:51;6.03;;;1.07;;
828;SDS011;396;52.558;13.188;2023-07-16T14:55:19;4.30;;;0.83;;
828;SDS011;396;52.558;13.188;2023-07-16T14:57:46;4.83;;;1.00;;
828;SDS011;396;52.558;13.188;2023-07-16T15:00:13;4.70;;;1.03;;
828;SDS011;396;52.558;13.188;2023-07-16T15:02:40;5.60;;;0.87;;
828;SDS011;396;52.558;13.188;2023-07-16T15:05:07;5.10;;;1.40;;
828;SDS011;396;52.558;13.188;2023-07-16T15:07:34;5.30;;;1.07;;
828;SDS011;396;52.558;13.188;2023-07-16T15:10:01;5.00;;;1.10;;
828;SDS011;396;52.558;13.188;2023-07-16T15:12:30;5.00;;;1.30;;
828;SDS011;396;52.558;13.188;2023-07-16T15:14:58;4.30;;;0.80;;
828;SDS011;396;52.558;13.188;2023-07-16T15:17:25;5.73;;;1.20;;
828;SDS011;396;52.558;13.188;2023-07-16T15:19:52;4.60;;;0.80;;
828;SDS011;396;52.558;13.188;2023-07-16T15:22:19;4.60;;;0.80;;
828;SDS011;396;52.558;13.188;2023-07-16T15:24:46;6.03;;;1.00;;
828;SDS011;396;52.558;13.188;2023-07-16T15:27:12;4.50;;;1.00;;
828;SDS011;396;52.558;13.188;2023-07-16T15:29:40;7.53;;;1.33;;
828;SDS011;396;52.558;13.188;2023-07-16T15:32:07;4.37;;;0.90;;
828;SDS011;396;52.558;13.188;2023-07-16T15:34:34;4.43;;;0.83;;